Bell Ranch, New Mexico
Current Conditions -  °F | °C
As of 4:53 PM on Saturday 22 Nov 2014 (Local Time) from KTCC Reporting Station
NA  
Wind Chill: 61°   Ceiling: NA
Heat Index: 61°   Visibility: 10mi
Dew Point: 17°   Wind: 18mph
Humidity: 18%   Direction: 240°WSW
Pressure: 29.66"   Gusts: NA
Location:  35.59°N, 104.11°W
Report Text: KTCC 222353Z AUTO 24016KT 10SM 16/M08 A2966 RMK AO2 PK WND 26030/2307 SLP022 T01611083 10217 20161 58021 $
Loading
Personal Weather Stations






























Interactive Weather Map New forecast layout! Learn more

10-Day Weather Forecast

Advertisements
Track Severe Weather on mobile